sensor_id;sensor_type;location;lat;lon;timestamp;P1;durP1;ratioP1;P2;durP2;ratioP2
68910;SDS011;55953;51.650;-0.522;2022-10-31T00:01:34;15.30;;;3.80;;
68910;SDS011;55953;51.650;-0.522;2022-10-31T00:04:04;21.00;;;3.40;;
68910;SDS011;55953;51.650;-0.522;2022-10-31T00:06:32;16.80;;;3.40;;
68910;SDS011;55953;51.650;-0.522;2022-10-31T00:09:02;23.10;;;3.80;;
68910;SDS011;55953;51.650;-0.522;2022-10-31T00:11:31;12.90;;;3.30;;
68910;SDS011;55953;51.650;-0.522;2022-10-31T00:13:59;24.60;;;4.40;;
68910;SDS011;55953;51.650;-0.522;2022-10-31T00:16:27;15.70;;;4.10;;
68910;SDS011;55953;51.650;-0.522;2022-10-31T00:18:58;16.50;;;3.40;;
68910;SDS011;55953;51.650;-0.522;2022-10-31T00:23:57;23.60;;;4.30;;
68910;SDS011;55953;51.650;-0.522;2022-10-31T00:26:30;23.40;;;3.30;;
68910;SDS011;55953;51.650;-0.522;2022-10-31T00:28:59;19.00;;;3.40;;
68910;SDS011;55953;51.650;-0.522;2022-10-31T00:31:27;16.40;;;3.80;;
68910;SDS011;55953;51.650;-0.522;2022-10-31T00:33:57;20.90;;;3.50;;
68910;SDS011;55953;51.650;-0.522;2022-10-31T00:36:26;16.90;;;3.60;;
68910;SDS011;55953;51.650;-0.522;2022-10-31T00:38:54;26.40;;;3.50;;
68910;SDS011;55953;51.650;-0.522;2022-10-31T00:41:24;19.70;;;3.50;;
68910;SDS011;55953;51.650;-0.522;2022-10-31T00:43:51;21.60;;;3.60;;
68910;SDS011;55953;51.650;-0.522;2022-10-31T00:46:19;22.10;;;3.40;;
68910;SDS011;55953;51.650;-0.522;2022-10-31T00:48:47;21.90;;;3.60;;
68910;SDS011;55953;51.650;-0.522;2022-10-31T00:51:14;24.10;;;3.40;;
68910;SDS011;55953;51.650;-0.522;2022-10-31T00:53:42;20.20;;;3.70;;
68910;SDS011;55953;51.650;-0.522;2022-10-31T00:56:10;18.70;;;3.20;;
68910;SDS011;55953;51.650;-0.522;2022-10-31T00:58:38;19.20;;;3.60;;
68910;SDS011;55953;51.650;-0.522;2022-10-31T01:01:07;14.80;;;3.00;;
68910;SDS011;55953;51.650;-0.522;2022-10-31T01:03:35;19.30;;;3.40;;
68910;SDS011;55953;51.650;-0.522;2022-10-31T01:06:06;13.70;;;2.40;;
68910;SDS011;55953;51.650;-0.522;2022-10-31T01:08:37;25.10;;;3.20;;
68910;SDS011;55953;51.650;-0.522;2022-10-31T01:13:39;16.50;;;3.30;;
68910;SDS011;55953;51.650;-0.522;2022-10-31T01:16:10;17.70;;;2.90;;
68910;SDS011;55953;51.650;-0.522;2022-10-31T01:18:40;21.70;;;3.30;;
68910;SDS011;55953;51.650;-0.522;2022-10-31T01:21:28;21.20;;;3.30;;
68910;SDS011;55953;51.650;-0.522;2022-10-31T01:23:59;14.40;;;2.80;;
68910;SDS011;55953;51.650;-0.522;2022-10-31T01:26:30;22.90;;;4.50;;
68910;SDS011;55953;51.650;-0.522;2022-10-31T01:29:03;21.70;;;3.60;;
68910;SDS011;55953;51.650;-0.522;2022-10-31T01:31:36;15.60;;;3.10;;
68910;SDS011;55953;51.650;-0.522;2022-10-31T01:34:05;25.20;;;3.20;;
68910;SDS011;55953;51.650;-0.522;2022-10-31T01:36:37;17.70;;;3.30;;
68910;SDS011;55953;51.650;-0.522;2022-10-31T01:39:11;19.70;;;3.30;;
68910;SDS011;55953;51.650;-0.522;2022-10-31T01:41:46;20.00;;;4.10;;
68910;SDS011;55953;51.650;-0.522;2022-10-31T01:46:54;21.10;;;3.60;;
68910;SDS011;55953;51.650;-0.522;2022-10-31T01:55:41;26.30;;;4.00;;
68910;SDS011;55953;51.650;-0.522;2022-10-31T01:58:19;18.90;;;4.00;;
68910;SDS011;55953;51.650;-0.522;2022-10-31T02:00:54;21.90;;;4.30;;
68910;SDS011;55953;51.650;-0.522;2022-10-31T02:03:29;18.10;;;3.60;;
68910;SDS011;55953;51.650;-0.522;2022-10-31T02:05:58;21.20;;;3.70;;
68910;SDS011;55953;51.650;-0.522;2022-10-31T02:08:28;15.30;;;3.70;;
68910;SDS011;55953;51.650;-0.522;2022-10-31T02:10:58;18.20;;;3.40;;
68910;SDS011;55953;51.650;-0.522;2022-10-31T02:13:29;20.00;;;3.80;;
68910;SDS011;55953;51.650;-0.522;2022-10-31T02:15:58;16.30;;;4.10;;
68910;SDS011;55953;51.650;-0.522;2022-10-31T02:18:29;13.10;;;3.30;;
68910;SDS011;55953;51.650;-0.522;2022-10-31T02:21:14;19.00;;;3.40;;
68910;SDS011;55953;51.650;-0.522;2022-10-31T02:32:24;15.70;;;4.20;;
68910;SDS011;55953;51.650;-0.522;2022-10-31T02:41:14;17.50;;;3.10;;
68910;SDS011;55953;51.650;-0.522;2022-10-31T02:44:15;19.90;;;3.10;;
68910;SDS011;55953;51.650;-0.522;2022-10-31T02:46:57;23.60;;;3.30;;
68910;SDS011;55953;51.650;-0.522;2022-10-31T02:49:36;18.20;;;3.50;;
68910;SDS011;55953;51.650;-0.522;2022-10-31T02:54:48;21.00;;;3.60;;
68910;SDS011;55953;51.650;-0.522;2022-10-31T02:57:20;20.80;;;3.50;;
68910;SDS011;55953;51.650;-0.522;2022-10-31T03:00:05;14.40;;;3.00;;
68910;SDS011;55953;51.650;-0.522;2022-10-31T03:08:58;17.10;;;3.10;;
68910;SDS011;55953;51.650;-0.522;2022-10-31T03:11:48;23.70;;;3.30;;
68910;SDS011;55953;51.650;-0.522;2022-10-31T03:14:29;15.70;;;3.20;;
68910;SDS011;55953;51.650;-0.522;2022-10-31T03:17:09;19.50;;;3.10;;
68910;SDS011;55953;51.650;-0.522;2022-10-31T03:19:49;15.40;;;3.10;;
68910;SDS011;55953;51.650;-0.522;2022-10-31T03:22:23;15.30;;;3.20;;
68910;SDS011;55953;51.650;-0.522;2022-10-31T03:24:54;12.90;;;3.10;;
68910;SDS011;55953;51.650;-0.522;2022-10-31T03:27:26;19.40;;;4.10;;
68910;SDS011;55953;51.650;-0.522;2022-10-31T03:30:02;17.50;;;3.20;;
68910;SDS011;55953;51.650;-0.522;2022-10-31T03:32:42;17.20;;;3.80;;
68910;SDS011;55953;51.650;-0.522;2022-10-31T03:35:17;14.70;;;3.40;;
68910;SDS011;55953;51.650;-0.522;2022-10-31T03:37:49;16.70;;;4.10;;
68910;SDS011;55953;51.650;-0.522;2022-10-31T03:40:21;16.30;;;3.80;;
68910;SDS011;55953;51.650;-0.522;2022-10-31T03:42:58;19.50;;;3.30;;
68910;SDS011;55953;51.650;-0.522;2022-10-31T03:45:32;16.00;;;3.60;;
68910;SDS011;55953;51.650;-0.522;2022-10-31T03:48:03;15.50;;;3.50;;
68910;SDS011;55953;51.650;-0.522;2022-10-31T03:50:40;15.20;;;4.00;;
68910;SDS011;55953;51.650;-0.522;2022-10-31T03:53:40;15.70;;;3.90;;
68910;SDS011;55953;51.650;-0.522;2022-10-31T03:56:21;14.90;;;3.70;;
68910;SDS011;55953;51.650;-0.522;2022-10-31T03:59:09;10.70;;;4.40;;
68910;SDS011;55953;51.650;-0.522;2022-10-31T04:01:50;12.10;;;3.70;;
68910;SDS011;55953;51.650;-0.522;2022-10-31T04:04:21;16.80;;;4.50;;
68910;SDS011;55953;51.650;-0.522;2022-10-31T04:06:50;13.50;;;4.20;;
68910;SDS011;55953;51.650;-0.522;2022-10-31T04:09:20;16.40;;;4.10;;
68910;SDS011;55953;51.650;-0.522;2022-10-31T04:11:51;17.90;;;4.20;;
68910;SDS011;55953;51.650;-0.522;2022-10-31T04:14:47;15.10;;;3.60;;
68910;SDS011;55953;51.650;-0.522;2022-10-31T04:17:21;21.70;;;5.80;;
68910;SDS011;55953;51.650;-0.522;2022-10-31T04:19:51;21.40;;;4.50;;
68910;SDS011;55953;51.650;-0.522;2022-10-31T04:22:18;21.10;;;4.40;;
68910;SDS011;55953;51.650;-0.522;2022-10-31T04:24:46;14.30;;;3.80;;
68910;SDS011;55953;51.650;-0.522;2022-10-31T04:27:15;21.90;;;4.70;;
68910;SDS011;55953;51.650;-0.522;2022-10-31T04:29:43;19.10;;;4.40;;
68910;SDS011;55953;51.650;-0.522;2022-10-31T04:32:16;15.70;;;4.00;;
68910;SDS011;55953;51.650;-0.522;2022-10-31T04:34:45;16.50;;;5.30;;
68910;SDS011;55953;51.650;-0.522;2022-10-31T04:37:12;23.50;;;6.00;;
68910;SDS011;55953;51.650;-0.522;2022-10-31T04:39:40;18.00;;;5.10;;
68910;SDS011;55953;51.650;-0.522;2022-10-31T04:42:40;15.90;;;4.90;;
68910;SDS011;55953;51.650;-0.522;2022-10-31T04:45:09;24.20;;;5.20;;
68910;SDS011;55953;51.650;-0.522;2022-10-31T04:47:37;20.00;;;4.80;;
68910;SDS011;55953;51.650;-0.522;2022-10-31T04:50:06;15.10;;;4.40;;
68910;SDS011;55953;51.650;-0.522;2022-10-31T04:52:39;15.90;;;4.70;;
68910;SDS011;55953;51.650;-0.522;2022-10-31T04:55:09;20.80;;;5.40;;
68910;SDS011;55953;51.650;-0.522;2022-10-31T04:57:58;13.20;;;5.50;;
68910;SDS011;55953;51.650;-0.522;2022-10-31T05:00:27;15.60;;;6.40;;
68910;SDS011;55953;51.650;-0.522;2022-10-31T05:02:57;18.50;;;4.80;;
68910;SDS011;55953;51.650;-0.522;2022-10-31T05:05:29;14.00;;;5.30;;
68910;SDS011;55953;51.650;-0.522;2022-10-31T05:08:00;16.90;;;5.70;;
68910;SDS011;55953;51.650;-0.522;2022-10-31T05:10:30;14.60;;;5.20;;
68910;SDS011;55953;51.650;-0.522;2022-10-31T05:13:01;15.40;;;5.70;;
68910;SDS011;55953;51.650;-0.522;2022-10-31T05:15:59;13.40;;;5.40;;
68910;SDS011;55953;51.650;-0.522;2022-10-31T05:18:42;16.20;;;6.00;;
68910;SDS011;55953;51.650;-0.522;2022-10-31T05:21:16;12.70;;;5.30;;
68910;SDS011;55953;51.650;-0.522;2022-10-31T05:23:49;18.50;;;6.20;;
68910;SDS011;55953;51.650;-0.522;2022-10-31T05:26:16;10.90;;;4.80;;
68910;SDS011;55953;51.650;-0.522;2022-10-31T05:28:44;14.50;;;5.70;;
68910;SDS011;55953;51.650;-0.522;2022-10-31T05:31:12;12.80;;;5.80;;
68910;SDS011;55953;51.650;-0.522;2022-10-31T05:33:41;13.00;;;5.30;;
68910;SDS011;55953;51.650;-0.522;2022-10-31T05:36:28;15.50;;;5.60;;
68910;SDS011;55953;51.650;-0.522;2022-10-31T05:39:18;12.60;;;5.70;;
68910;SDS011;55953;51.650;-0.522;2022-10-31T05:41:48;13.10;;;6.20;;
68910;SDS011;55953;51.650;-0.522;2022-10-31T05:44:20;13.90;;;5.60;;
68910;SDS011;55953;51.650;-0.522;2022-10-31T05:46:56;11.20;;;5.60;;
68910;SDS011;55953;51.650;-0.522;2022-10-31T05:49:43;13.20;;;5.70;;
68910;SDS011;55953;51.650;-0.522;2022-10-31T05:52:29;11.80;;;5.20;;
68910;SDS011;55953;51.650;-0.522;2022-10-31T05:55:03;11.20;;;5.50;;
68910;SDS011;55953;51.650;-0.522;2022-10-31T05:57:32;15.60;;;5.40;;
68910;SDS011;55953;51.650;-0.522;2022-10-31T06:00:01;15.10;;;5.90;;
68910;SDS011;55953;51.650;-0.522;2022-10-31T06:02:33;14.60;;;5.50;;
68910;SDS011;55953;51.650;-0.522;2022-10-31T06:05:20;16.60;;;6.30;;
68910;SDS011;55953;51.650;-0.522;2022-10-31T06:07:48;14.40;;;5.40;;
68910;SDS011;55953;51.650;-0.522;2022-10-31T06:10:16;15.30;;;6.20;;
68910;SDS011;55953;51.650;-0.522;2022-10-31T06:12:44;17.20;;;6.40;;
68910;SDS011;55953;51.650;-0.522;2022-10-31T06:15:33;17.10;;;6.20;;
68910;SDS011;55953;51.650;-0.522;2022-10-31T06:18:03;19.20;;;6.00;;
68910;SDS011;55953;51.650;-0.522;2022-10-31T06:20:35;16.70;;;5.90;;
68910;SDS011;55953;51.650;-0.522;2022-10-31T06:23:04;14.50;;;5.60;;
68910;SDS011;55953;51.650;-0.522;2022-10-31T06:25:33;21.60;;;6.60;;
68910;SDS011;55953;51.650;-0.522;2022-10-31T06:28:04;24.80;;;5.90;;
68910;SDS011;55953;51.650;-0.522;2022-10-31T06:31:04;24.40;;;5.90;;
68910;SDS011;55953;51.650;-0.522;2022-10-31T06:33:34;23.90;;;6.10;;
68910;SDS011;55953;51.650;-0.522;2022-10-31T06:36:02;21.40;;;6.20;;
68910;SDS011;55953;51.650;-0.522;2022-10-31T06:38:30;23.80;;;6.70;;
68910;SDS011;55953;51.650;-0.522;2022-10-31T06:41:02;17.60;;;6.30;;
68910;SDS011;55953;51.650;-0.522;2022-10-31T06:43:51;20.10;;;6.30;;
68910;SDS011;55953;51.650;-0.522;2022-10-31T06:46:34;20.90;;;5.80;;
68910;SDS011;55953;51.650;-0.522;2022-10-31T06:49:22;23.70;;;6.70;;
68910;SDS011;55953;51.650;-0.522;2022-10-31T06:54:21;20.60;;;6.50;;
68910;SDS011;55953;51.650;-0.522;2022-10-31T06:56:49;17.80;;;6.30;;
68910;SDS011;55953;51.650;-0.522;2022-10-31T06:59:17;18.00;;;6.90;;
68910;SDS011;55953;51.650;-0.522;2022-10-31T07:02:17;26.00;;;7.00;;
68910;SDS011;55953;51.650;-0.522;2022-10-31T07:04:45;23.00;;;7.00;;
68910;SDS011;55953;51.650;-0.522;2022-10-31T07:07:14;15.40;;;5.80;;
68910;SDS011;55953;51.650;-0.522;2022-10-31T07:09:41;20.50;;;6.70;;
68910;SDS011;55953;51.650;-0.522;2022-10-31T07:12:10;18.70;;;6.30;;
68910;SDS011;55953;51.650;-0.522;2022-10-31T07:14:40;18.70;;;6.50;;
68910;SDS011;55953;51.650;-0.522;2022-10-31T07:17:08;23.30;;;6.90;;
68910;SDS011;55953;51.650;-0.522;2022-10-31T07:19:39;23.40;;;6.80;;
68910;SDS011;55953;51.650;-0.522;2022-10-31T07:22:07;31.50;;;7.70;;
68910;SDS011;55953;51.650;-0.522;2022-10-31T07:24:36;22.90;;;6.40;;
68910;SDS011;55953;51.650;-0.522;2022-10-31T07:27:41;21.40;;;7.70;;
68910;SDS011;55953;51.650;-0.522;2022-10-31T07:30:12;19.30;;;5.90;;
68910;SDS011;55953;51.650;-0.522;2022-10-31T07:32:43;19.40;;;5.80;;
68910;SDS011;55953;51.650;-0.522;2022-10-31T07:35:15;22.40;;;6.20;;
68910;SDS011;55953;51.650;-0.522;2022-10-31T07:37:56;22.20;;;6.20;;
68910;SDS011;55953;51.650;-0.522;2022-10-31T07:40:25;22.40;;;7.20;;
68910;SDS011;55953;51.650;-0.522;2022-10-31T07:42:53;23.60;;;6.70;;
68910;SDS011;55953;51.650;-0.522;2022-10-31T07:45:39;20.20;;;7.10;;
68910;SDS011;55953;51.650;-0.522;2022-10-31T07:48:26;28.00;;;7.40;;
68910;SDS011;55953;51.650;-0.522;2022-10-31T07:51:12;19.90;;;6.90;;
68910;SDS011;55953;51.650;-0.522;2022-10-31T07:53:59;20.90;;;6.70;;
68910;SDS011;55953;51.650;-0.522;2022-10-31T07:56:29;26.30;;;8.00;;
68910;SDS011;55953;51.650;-0.522;2022-10-31T07:58:57;26.90;;;7.40;;
68910;SDS011;55953;51.650;-0.522;2022-10-31T08:01:25;16.60;;;6.90;;
68910;SDS011;55953;51.650;-0.522;2022-10-31T08:04:08;29.60;;;7.50;;
68910;SDS011;55953;51.650;-0.522;2022-10-31T08:06:54;20.10;;;6.60;;
68910;SDS011;55953;51.650;-0.522;2022-10-31T08:09:29;24.10;;;7.60;;
68910;SDS011;55953;51.650;-0.522;2022-10-31T08:11:59;20.20;;;6.20;;
68910;SDS011;55953;51.650;-0.522;2022-10-31T08:14:27;22.80;;;7.70;;
68910;SDS011;55953;51.650;-0.522;2022-10-31T08:16:55;31.80;;;7.20;;
68910;SDS011;55953;51.650;-0.522;2022-10-31T08:19:25;26.80;;;7.10;;
68910;SDS011;55953;51.650;-0.522;2022-10-31T08:21:53;23.80;;;7.10;;
68910;SDS011;55953;51.650;-0.522;2022-10-31T08:24:25;20.60;;;6.70;;
68910;SDS011;55953;51.650;-0.522;2022-10-31T08:26:54;22.80;;;5.70;;
68910;SDS011;55953;51.650;-0.522;2022-10-31T08:29:22;20.10;;;6.30;;
68910;SDS011;55953;51.650;-0.522;2022-10-31T08:31:51;15.30;;;5.50;;
68910;SDS011;55953;51.650;-0.522;2022-10-31T08:34:37;19.70;;;6.10;;
68910;SDS011;55953;51.650;-0.522;2022-10-31T08:37:23;26.50;;;5.40;;
68910;SDS011;55953;51.650;-0.522;2022-10-31T08:39:54;19.60;;;5.70;;
68910;SDS011;55953;51.650;-0.522;2022-10-31T08:42:22;20.90;;;4.90;;
68910;SDS011;55953;51.650;-0.522;2022-10-31T08:44:49;22.00;;;5.70;;
68910;SDS011;55953;51.650;-0.522;2022-10-31T08:47:20;24.10;;;5.40;;
68910;SDS011;55953;51.650;-0.522;2022-10-31T08:49:48;28.00;;;5.60;;
68910;SDS011;55953;51.650;-0.522;2022-10-31T08:52:16;21.70;;;4.90;;
68910;SDS011;55953;51.650;-0.522;2022-10-31T08:54:44;16.20;;;4.60;;
68910;SDS011;55953;51.650;-0.522;2022-10-31T08:57:30;24.80;;;5.20;;
68910;SDS011;55953;51.650;-0.522;2022-10-31T08:59:59;25.20;;;5.10;;
68910;SDS011;55953;51.650;-0.522;2022-10-31T09:02:41;23.30;;;5.80;;
68910;SDS011;55953;51.650;-0.522;2022-10-31T09:05:09;23.30;;;4.30;;
68910;SDS011;55953;51.650;-0.522;2022-10-31T09:07:37;18.10;;;4.00;;
68910;SDS011;55953;51.650;-0.522;2022-10-31T09:10:05;19.40;;;3.90;;
68910;SDS011;55953;51.650;-0.522;2022-10-31T09:12:35;24.00;;;4.20;;
68910;SDS011;55953;51.650;-0.522;2022-10-31T09:15:21;25.60;;;4.70;;
68910;SDS011;55953;51.650;-0.522;2022-10-31T09:17:57;22.80;;;4.10;;
68910;SDS011;55953;51.650;-0.522;2022-10-31T09:20:51;21.80;;;4.30;;
68910;SDS011;55953;51.650;-0.522;2022-10-31T09:23:21;27.90;;;5.20;;
68910;SDS011;55953;51.650;-0.522;2022-10-31T09:25:51;24.30;;;4.00;;
68910;SDS011;55953;51.650;-0.522;2022-10-31T09:28:42;22.20;;;4.50;;
68910;SDS011;55953;51.650;-0.522;2022-10-31T09:31:12;33.60;;;4.90;;
68910;SDS011;55953;51.650;-0.522;2022-10-31T09:33:49;17.70;;;3.90;;
68910;SDS011;55953;51.650;-0.522;2022-10-31T09:36:43;21.90;;;4.50;;
68910;SDS011;55953;51.650;-0.522;2022-10-31T09:39:20;22.80;;;4.70;;
68910;SDS011;55953;51.650;-0.522;2022-10-31T09:47:58;19.80;;;3.80;;
68910;SDS011;55953;51.650;-0.522;2022-10-31T09:50:38;26.10;;;3.60;;
68910;SDS011;55953;51.650;-0.522;2022-10-31T09:53:42;18.30;;;3.30;;
68910;SDS011;55953;51.650;-0.522;2022-10-31T09:56:21;21.30;;;3.30;;
68910;SDS011;55953;51.650;-0.522;2022-10-31T09:58:59;22.70;;;3.50;;
68910;SDS011;55953;51.650;-0.522;2022-10-31T10:01:34;17.20;;;3.40;;
68910;SDS011;55953;51.650;-0.522;2022-10-31T10:04:48;20.00;;;3.30;;
68910;SDS011;55953;51.650;-0.522;2022-10-31T10:17:07;13.90;;;3.10;;
68910;SDS011;55953;51.650;-0.522;2022-10-31T10:22:54;17.50;;;2.80;;
68910;SDS011;55953;51.650;-0.522;2022-10-31T10:25:41;12.50;;;2.80;;
68910;SDS011;55953;51.650;-0.522;2022-10-31T10:28:18;13.90;;;2.60;;
68910;SDS011;55953;51.650;-0.522;2022-10-31T10:31:00;13.30;;;3.10;;
68910;SDS011;55953;51.650;-0.522;2022-10-31T10:33:42;20.20;;;2.90;;
68910;SDS011;55953;51.650;-0.522;2022-10-31T10:39:21;17.60;;;2.40;;
68910;SDS011;55953;51.650;-0.522;2022-10-31T10:41:52;15.00;;;2.60;;
68910;SDS011;55953;51.650;-0.522;2022-10-31T10:44:40;21.80;;;3.60;;
68910;SDS011;55953;51.650;-0.522;2022-10-31T10:47:38;16.30;;;3.00;;
68910;SDS011;55953;51.650;-0.522;2022-10-31T10:50:19;13.00;;;2.60;;
68910;SDS011;55953;51.650;-0.522;2022-10-31T10:55:42;9.80;;;2.10;;
68910;SDS011;55953;51.650;-0.522;2022-10-31T10:58:16;13.70;;;2.50;;
68910;SDS011;55953;51.650;-0.522;2022-10-31T11:00:45;20.30;;;2.70;;
68910;SDS011;55953;51.650;-0.522;2022-10-31T11:03:16;11.90;;;2.10;;
68910;SDS011;55953;51.650;-0.522;2022-10-31T11:05:58;11.20;;;2.60;;
68910;SDS011;55953;51.650;-0.522;2022-10-31T11:08:29;9.80;;;2.80;;
68910;SDS011;55953;51.650;-0.522;2022-10-31T11:11:28;17.30;;;2.30;;
68910;SDS011;55953;51.650;-0.522;2022-10-31T11:14:12;11.40;;;2.00;;
68910;SDS011;55953;51.650;-0.522;2022-10-31T11:16:45;13.50;;;2.20;;
68910;SDS011;55953;51.650;-0.522;2022-10-31T11:19:19;14.10;;;2.50;;
68910;SDS011;55953;51.650;-0.522;2022-10-31T11:21:49;13.60;;;2.10;;
68910;SDS011;55953;51.650;-0.522;2022-10-31T11:24:22;10.20;;;2.20;;
68910;SDS011;55953;51.650;-0.522;2022-10-31T11:27:11;14.30;;;2.00;;
68910;SDS011;55953;51.650;-0.522;2022-10-31T11:29:40;12.20;;;2.10;;
68910;SDS011;55953;51.650;-0.522;2022-10-31T11:32:24;10.90;;;2.30;;
68910;SDS011;55953;51.650;-0.522;2022-10-31T11:34:56;11.60;;;2.20;;
68910;SDS011;55953;51.650;-0.522;2022-10-31T11:37:30;7.30;;;2.30;;
68910;SDS011;55953;51.650;-0.522;2022-10-31T11:40:05;15.80;;;2.30;;
68910;SDS011;55953;51.650;-0.522;2022-10-31T11:42:43;11.00;;;1.90;;
68910;SDS011;55953;51.650;-0.522;2022-10-31T11:45:17;12.00;;;2.20;;
68910;SDS011;55953;51.650;-0.522;2022-10-31T11:47:56;17.20;;;2.00;;
68910;SDS011;55953;51.650;-0.522;2022-10-31T11:50:49;8.10;;;1.90;;
68910;SDS011;55953;51.650;-0.522;2022-10-31T11:53:26;13.10;;;2.10;;
68910;SDS011;55953;51.650;-0.522;2022-10-31T11:56:16;8.00;;;1.90;;
68910;SDS011;55953;51.650;-0.522;2022-10-31T11:58:55;11.40;;;2.20;;
68910;SDS011;55953;51.650;-0.522;2022-10-31T12:01:26;14.40;;;2.40;;
68910;SDS011;55953;51.650;-0.522;2022-10-31T12:06:36;10.80;;;2.20;;
68910;SDS011;55953;51.650;-0.522;2022-10-31T12:17:45;10.50;;;2.80;;
68910;SDS011;55953;51.650;-0.522;2022-10-31T12:29:02;8.40;;;2.20;;
68910;SDS011;55953;51.650;-0.522;2022-10-31T12:43:47;12.50;;;2.30;;
68910;SDS011;55953;51.650;-0.522;2022-10-31T12:53:00;9.20;;;1.80;;
68910;SDS011;55953;51.650;-0.522;2022-10-31T12:58:49;9.50;;;2.10;;
68910;SDS011;55953;51.650;-0.522;2022-10-31T13:01:36;11.90;;;2.20;;
68910;SDS011;55953;51.650;-0.522;2022-10-31T13:04:29;13.80;;;2.40;;
68910;SDS011;55953;51.650;-0.522;2022-10-31T13:07:43;8.70;;;2.50;;
68910;SDS011;55953;51.650;-0.522;2022-10-31T13:12:48;11.40;;;2.30;;
68910;SDS011;55953;51.650;-0.522;2022-10-31T13:15:22;14.20;;;2.70;;
68910;SDS011;55953;51.650;-0.522;2022-10-31T13:17:59;11.30;;;2.40;;
68910;SDS011;55953;51.650;-0.522;2022-10-31T13:20:34;9.70;;;2.00;;
68910;SDS011;55953;51.650;-0.522;2022-10-31T13:23:34;13.20;;;3.40;;
68910;SDS011;55953;51.650;-0.522;2022-10-31T13:29:00;8.20;;;2.20;;
68910;SDS011;55953;51.650;-0.522;2022-10-31T13:31:30;6.50;;;2.40;;
68910;SDS011;55953;51.650;-0.522;2022-10-31T13:34:03;11.70;;;2.00;;
68910;SDS011;55953;51.650;-0.522;2022-10-31T13:36:45;6.40;;;1.70;;
68910;SDS011;55953;51.650;-0.522;2022-10-31T13:39:28;12.30;;;2.00;;
68910;SDS011;55953;51.650;-0.522;2022-10-31T13:45:23;8.90;;;3.20;;
68910;SDS011;55953;51.650;-0.522;2022-10-31T13:48:00;7.80;;;2.00;;
68910;SDS011;55953;51.650;-0.522;2022-10-31T13:50:31;6.90;;;1.70;;
68910;SDS011;55953;51.650;-0.522;2022-10-31T13:53:20;9.30;;;1.70;;
68910;SDS011;55953;51.650;-0.522;2022-10-31T13:56:03;6.00;;;1.50;;
68910;SDS011;55953;51.650;-0.522;2022-10-31T14:01:34;8.00;;;2.30;;
68910;SDS011;55953;51.650;-0.522;2022-10-31T14:04:18;8.90;;;1.90;;
68910;SDS011;55953;51.650;-0.522;2022-10-31T14:07:05;8.60;;;1.70;;
68910;SDS011;55953;51.650;-0.522;2022-10-31T14:09:54;7.80;;;1.70;;
68910;SDS011;55953;51.650;-0.522;2022-10-31T14:12:39;8.80;;;1.80;;
68910;SDS011;55953;51.650;-0.522;2022-10-31T14:15:19;10.30;;;3.00;;
68910;SDS011;55953;51.650;-0.522;2022-10-31T14:17:52;5.50;;;1.70;;
68910;SDS011;55953;51.650;-0.522;2022-10-31T14:20:41;5.90;;;1.50;;
68910;SDS011;55953;51.650;-0.522;2022-10-31T14:28:58;10.20;;;1.70;;
68910;SDS011;55953;51.650;-0.522;2022-10-31T14:31:35;8.40;;;2.10;;
68910;SDS011;55953;51.650;-0.522;2022-10-31T14:37:17;11.50;;;2.00;;
68910;SDS011;55953;51.650;-0.522;2022-10-31T14:42:31;10.10;;;2.30;;
68910;SDS011;55953;51.650;-0.522;2022-10-31T14:45:17;9.40;;;2.10;;
68910;SDS011;55953;51.650;-0.522;2022-10-31T14:51:02;7.30;;;1.90;;
68910;SDS011;55953;51.650;-0.522;2022-10-31T14:53:52;6.30;;;1.90;;
68910;SDS011;55953;51.650;-0.522;2022-10-31T14:56:26;7.60;;;2.60;;
68910;SDS011;55953;51.650;-0.522;2022-10-31T14:59:00;7.00;;;2.20;;
68910;SDS011;55953;51.650;-0.522;2022-10-31T15:01:33;7.70;;;1.90;;
68910;SDS011;55953;51.650;-0.522;2022-10-31T15:04:09;14.00;;;2.30;;
68910;SDS011;55953;51.650;-0.522;2022-10-31T15:07:10;8.00;;;1.90;;
68910;SDS011;55953;51.650;-0.522;2022-10-31T15:10:01;14.10;;;2.50;;
68910;SDS011;55953;51.650;-0.522;2022-10-31T15:12:35;15.20;;;5.30;;
68910;SDS011;55953;51.650;-0.522;2022-10-31T15:15:13;12.80;;;3.00;;
68910;SDS011;55953;51.650;-0.522;2022-10-31T15:17:58;11.60;;;3.90;;
68910;SDS011;55953;51.650;-0.522;2022-10-31T15:20:29;10.80;;;2.50;;
68910;SDS011;55953;51.650;-0.522;2022-10-31T15:23:16;14.80;;;6.90;;
68910;SDS011;55953;51.650;-0.522;2022-10-31T15:25:50;10.10;;;3.00;;
68910;SDS011;55953;51.650;-0.522;2022-10-31T15:28:25;7.40;;;3.80;;
68910;SDS011;55953;51.650;-0.522;2022-10-31T15:30:56;15.50;;;3.90;;
68910;SDS011;55953;51.650;-0.522;2022-10-31T15:33:48;8.50;;;3.40;;
68910;SDS011;55953;51.650;-0.522;2022-10-31T15:36:21;13.90;;;5.00;;
68910;SDS011;55953;51.650;-0.522;2022-10-31T15:38:57;16.50;;;4.60;;
68910;SDS011;55953;51.650;-0.522;2022-10-31T15:44:28;17.90;;;5.80;;
68910;SDS011;55953;51.650;-0.522;2022-10-31T15:47:00;15.20;;;3.90;;
68910;SDS011;55953;51.650;-0.522;2022-10-31T15:49:39;12.00;;;3.30;;
68910;SDS011;55953;51.650;-0.522;2022-10-31T15:52:17;8.80;;;3.60;;
68910;SDS011;55953;51.650;-0.522;2022-10-31T15:54:53;11.80;;;3.80;;
68910;SDS011;55953;51.650;-0.522;2022-10-31T15:57:23;10.70;;;3.70;;
68910;SDS011;55953;51.650;-0.522;2022-10-31T15:59:53;11.10;;;3.90;;
68910;SDS011;55953;51.650;-0.522;2022-10-31T16:02:24;13.10;;;3.50;;
68910;SDS011;55953;51.650;-0.522;2022-10-31T16:04:59;12.50;;;3.00;;
68910;SDS011;55953;51.650;-0.522;2022-10-31T16:07:29;10.80;;;3.00;;
68910;SDS011;55953;51.650;-0.522;2022-10-31T16:10:02;9.90;;;2.80;;
68910;SDS011;55953;51.650;-0.522;2022-10-31T16:12:43;8.60;;;2.30;;
68910;SDS011;55953;51.650;-0.522;2022-10-31T16:15:14;7.20;;;2.40;;
68910;SDS011;55953;51.650;-0.522;2022-10-31T16:17:47;9.30;;;3.00;;
68910;SDS011;55953;51.650;-0.522;2022-10-31T16:20:22;9.10;;;2.60;;
68910;SDS011;55953;51.650;-0.522;2022-10-31T16:22:56;11.00;;;2.70;;
68910;SDS011;55953;51.650;-0.522;2022-10-31T16:25:34;9.40;;;3.00;;
68910;SDS011;55953;51.650;-0.522;2022-10-31T16:28:12;14.30;;;3.40;;
68910;SDS011;55953;51.650;-0.522;2022-10-31T16:30:48;10.50;;;3.20;;
68910;SDS011;55953;51.650;-0.522;2022-10-31T16:35:52;12.60;;;2.70;;
68910;SDS011;55953;51.650;-0.522;2022-10-31T16:38:36;9.40;;;3.30;;
68910;SDS011;55953;51.650;-0.522;2022-10-31T16:41:04;8.90;;;3.50;;
68910;SDS011;55953;51.650;-0.522;2022-10-31T16:43:32;11.50;;;3.60;;
68910;SDS011;55953;51.650;-0.522;2022-10-31T16:46:00;11.70;;;3.70;;
68910;SDS011;55953;51.650;-0.522;2022-10-31T16:48:28;13.20;;;3.30;;
68910;SDS011;55953;51.650;-0.522;2022-10-31T16:50:55;12.10;;;3.00;;
68910;SDS011;55953;51.650;-0.522;2022-10-31T16:53:23;12.50;;;3.40;;
68910;SDS011;55953;51.650;-0.522;2022-10-31T16:55:57;11.00;;;3.80;;
68910;SDS011;55953;51.650;-0.522;2022-10-31T16:58:28;10.50;;;2.90;;
68910;SDS011;55953;51.650;-0.522;2022-10-31T17:00:59;8.30;;;2.60;;
68910;SDS011;55953;51.650;-0.522;2022-10-31T17:03:28;10.90;;;3.80;;
68910;SDS011;55953;51.650;-0.522;2022-10-31T17:05:56;11.60;;;3.10;;
68910;SDS011;55953;51.650;-0.522;2022-10-31T17:08:24;11.60;;;4.60;;
68910;SDS011;55953;51.650;-0.522;2022-10-31T17:10:54;14.50;;;4.10;;
68910;SDS011;55953;51.650;-0.522;2022-10-31T17:13:26;10.80;;;3.30;;
68910;SDS011;55953;51.650;-0.522;2022-10-31T17:16:01;9.80;;;3.30;;
68910;SDS011;55953;51.650;-0.522;2022-10-31T17:18:30;23.90;;;6.30;;
68910;SDS011;55953;51.650;-0.522;2022-10-31T17:21:00;19.20;;;6.40;;
68910;SDS011;55953;51.650;-0.522;2022-10-31T17:23:29;17.20;;;5.60;;
68910;SDS011;55953;51.650;-0.522;2022-10-31T17:25:59;22.20;;;6.30;;
68910;SDS011;55953;51.650;-0.522;2022-10-31T17:28:27;18.40;;;5.60;;
68910;SDS011;55953;51.650;-0.522;2022-10-31T17:30:55;15.80;;;5.50;;